Time;durP1;ratioP1;P1;durP2;ratioP2;P2;SDS_P1;SDS_P2;PMS_P1;PMS_P2;Temp;Humidity;BMP_temperature;BMP_pressure;BME280_temperature;BME280_humidity;BME280_pressure;Samples;Min_cycle;Max_cycle;Signal;HPM_P1;HPM_P2
2022/06/23 00:00:03;;;;;;;9.20;4.95;;;;;;;12.84;64.04;96961.42;1318789;105;26010;-77
2022/06/23 00:02:34;;;;;;;8.75;4.87;;;;;;;12.83;64.13;96958.41;1350761;104;26029;-78
2022/06/23 00:05:09;;;;;;;7.58;4.80;;;;;;;12.83;64.18;96957.06;1358722;103;28402;-77
2022/06/23 00:07:38;;;;;;;8.85;4.95;;;;;;;12.78;64.27;96952.90;1415644;100;25968;-78
2022/06/23 00:10:28;;;;;;;6.85;5.35;;;;;;;12.74;64.41;96953.06;1410379;99;26218;-77
2022/06/23 00:12:55;;;;;;;7.47;4.58;;;;;;;12.70;64.51;96944.58;1420562;98;25966;-81
2022/06/23 00:15:29;;;;;;;6.08;4.35;;;;;;;12.67;64.62;96949.66;1468365;94;25829;-77
2022/06/23 00:18:04;;;;;;;6.87;4.78;;;;;;;12.67;64.68;96955.08;1550235;91;27617;-79
2022/06/23 00:20:50;;;;;;;6.92;4.60;;;;;;;12.64;64.71;96948.24;1543824;92;25907;-80
2022/06/23 00:23:33;;;;;;;6.50;4.58;;;;;;;12.62;64.82;96950.36;1549279;90;25717;-77
2022/06/23 00:26:11;;;;;;;;;;;;;;;12.58;64.91;96945.94;1574924;91;26637;-77
2022/06/23 00:28:46;;;;;;;5.65;3.60;;;;;;;12.61;65.38;96952.23;1565728;90;25929;-79
2022/06/23 00:31:34;;;;;;;8.50;4.10;;;;;;;12.57;65.06;96948.34;1561157;90;27462;-79
2022/06/23 00:34:06;;;;;;;6.05;4.33;;;;;;;12.58;65.04;96941.88;1602888;88;25585;-78
2022/06/23 00:36:43;;;;;;;6.92;4.33;;;;;;;12.60;65.05;96937.58;1608497;88;25946;-79
2022/06/23 00:39:24;;;;;;;6.70;4.20;;;;;;;12.60;65.10;96941.64;1613133;88;25797;-77
2022/06/23 00:41:51;;;;;;;6.70;4.33;;;;;;;12.56;65.13;96940.45;1604860;86;25847;-79
2022/06/23 00:44:38;;;;;;;6.47;3.92;;;;;;;12.53;65.21;96945.83;1606070;87;28394;-77
2022/06/23 00:47:09;;;;;;;5.28;4.10;;;;;;;12.47;65.33;96939.16;1621733;88;26017;-77
2022/06/23 00:49:53;;;;;;;8.70;4.30;;;;;;;12.47;65.36;96941.87;1605486;87;25851;-80
2022/06/23 00:52:40;;;;;;;9.15;4.20;;;;;;;12.42;65.42;96939.88;1671246;84;25809;-77
2022/06/23 00:55:17;;;;;;;5.08;4.10;;;;;;;12.38;65.48;96945.45;1608849;86;26912;-77
2022/06/23 00:57:52;;;;;;;4.67;3.40;;;;;;;12.33;65.57;96949.38;1587954;89;27434;-80
2022/06/23 01:00:24;;;;;;;6.90;3.77;;;;;;;12.30;65.57;96938.22;1546863;91;25808;-77
2022/06/23 01:03:02;;;;;;;6.80;4.37;;;;;;;12.27;65.55;96936.80;1458975;97;25921;-77
2022/06/23 01:05:42;;;;;;;6.45;4.22;;;;;;;12.23;65.65;96938.31;1430548;98;25802;-77
2022/06/23 01:08:29;;;;;;;6.92;3.58;;;;;;;12.21;65.70;96939.89;1436197;98;27176;-80
2022/06/23 01:11:21;;;;;;;5.97;3.72;;;;;;;12.17;65.75;96942.79;1431526;98;26852;-77
2022/06/23 01:14:02;;;;;;;7.90;4.78;;;;;;;12.15;65.86;96942.72;1434023;98;25932;-77
2022/06/23 01:17:09;;;;;;;7.80;3.75;;;;;;;12.10;65.92;96946.63;1435257;98;25936;-77
2022/06/23 01:20:05;;;;;;;6.22;3.60;;;;;;;12.04;65.95;96950.28;1422733;97;26377;-77
2022/06/23 01:22:42;;;;;;;8.08;3.60;;;;;;;11.98;66.06;96952.55;1405043;100;25927;-77
2022/06/23 01:25:35;;;;;;;5.22;3.50;;;;;;;11.93;66.14;96959.19;1375556;102;27533;-77
2022/06/23 01:28:21;;;;;;;4.87;3.52;;;;;;;11.87;66.17;96956.34;1382484;100;33787;-80
2022/06/23 01:31:13;;;;;;;3.72;3.40;;;;;;;11.82;66.34;96954.88;1329370;105;25866;-77
2022/06/23 01:34:18;;;;;;;3.33;2.95;;;;;;;11.78;66.36;96955.55;1299716;108;26126;-77
2022/06/23 01:36:57;;;;;;;7.20;3.50;;;;;;;11.73;66.43;96956.19;1272545;109;26882;-78
2022/06/23 01:39:35;;;;;;;6.20;3.22;;;;;;;11.68;66.46;96959.30;1310917;108;27545;-81
2022/06/23 01:42:25;;;;;;;5.83;3.92;;;;;;;11.63;66.47;96962.69;1316795;108;25937;-79
2022/06/23 02:01:10;;;;;;;7.47;3.75;;;;;;;11.27;67.19;96972.19;1270641;112;26700;-79
2022/06/23 02:03:41;;;;;;;6.45;3.30;;;;;;;11.23;67.26;96973.72;1245784;113;26263;-77
2022/06/23 02:06:21;;;;;;;6.17;3.47;;;;;;;11.19;67.21;96976.86;1279792;108;26622;-80
2022/06/23 02:08:56;;;;;;;5.83;3.30;;;;;;;11.16;67.20;96971.90;1308747;109;25678;-79
2022/06/23 02:11:43;;;;;;;7.00;3.65;;;;;;;11.13;67.28;96970.98;1296607;109;27693;-79
2022/06/23 02:14:50;;;;;;;5.15;3.50;;;;;;;11.10;67.28;96978.22;1332178;106;26067;-78
2022/06/23 02:17:31;;;;;;;4.62;3.50;;;;;;;11.04;67.29;96976.40;1349409;104;26013;-77
2022/06/23 02:20:06;;;;;;;5.42;3.70;;;;;;;10.99;67.37;96982.98;1338195;106;25932;-78
2022/06/23 02:22:40;;;;;;;4.70;3.10;;;;;;;10.93;67.38;96982.55;1419356;96;25465;-79
2022/06/23 02:25:23;;;;;;;5.53;3.47;;;;;;;10.90;67.46;96992.44;1460371;97;28178;-77
2022/06/23 02:28:01;;;;;;;4.37;3.42;;;;;;;10.86;67.37;96988.55;1472984;94;26102;-79
2022/06/23 02:30:47;;;;;;;4.42;3.40;;;;;;;10.81;67.45;96994.61;1503750;92;25723;-79
2022/06/23 02:33:28;;;;;;;7.70;4.08;;;;;;;10.76;67.54;96989.56;1522463;93;25834;-77
2022/06/23 02:36:09;;;;;;;4.67;3.60;;;;;;;10.74;67.62;96993.86;1478996;96;25792;-77
2022/06/23 02:38:53;;;;;;;6.37;3.60;;;;;;;10.72;67.70;96987.02;1505954;93;27535;-77
2022/06/23 02:41:30;;;;;;;5.90;3.40;;;;;;;10.69;67.79;96993.69;1504143;93;25903;-80
2022/06/23 02:44:13;;;;;;;4.97;3.52;;;;;;;10.66;67.76;96994.64;1481173;96;25961;-80
2022/06/23 02:47:19;;;;;;;5.55;3.50;;;;;;;10.64;67.86;96994.03;1467805;97;25969;-77
2022/06/23 02:50:18;;;;;;;6.90;3.30;;;;;;;10.61;67.96;96997.20;1470303;97;26034;-76
2022/06/23 02:53:04;;;;;;;3.75;3.17;;;;;;;10.57;68.00;96993.28;1469485;96;27410;-77
2022/06/23 02:56:02;;;;;;;5.00;3.52;;;;;;;10.52;68.07;96999.85;1466682;96;25589;-77
2022/06/23 02:58:43;;;;;;;5.78;3.55;;;;;;;10.49;68.12;97002.49;1469341;95;25896;-77
2022/06/23 03:01:15;;;;;;;5.08;3.17;;;;;;;10.47;68.23;97005.92;1438105;98;25941;-77
2022/06/23 03:04:07;;;;;;;4.45;3.40;;;;;;;10.44;68.30;97007.70;1444857;97;25844;-80
2022/06/23 03:07:01;;;;;;;;;;;;;;;10.41;68.34;97013.02;1406726;101;27489;-80
2022/06/23 03:09:44;;;;;;;5.70;3.10;;;;;;;10.38;68.79;97025.62;1405410;100;25844;-77
2022/06/23 03:12:18;;;;;;;4.42;3.12;;;;;;;10.36;68.56;97027.70;1402422;101;25822;-79
2022/06/23 03:15:01;;;;;;;5.33;3.60;;;;;;;10.37;68.52;97043.37;1400593;100;26028;-77
2022/06/23 03:17:56;;;;;;;5.78;3.45;;;;;;;10.33;68.52;97040.80;1351510;104;25954;-79
2022/06/23 03:20:47;;;;;;;6.28;4.00;;;;;;;10.30;68.66;97048.80;1348046;104;27504;-77
2022/06/23 03:23:45;;;;;;;5.47;3.52;;;;;;;10.30;68.82;97045.27;1365897;103;25950;-76
2022/06/23 03:26:47;;;;;;;5.60;3.80;;;;;;;10.31;68.84;97050.45;1427880;99;25943;-75
2022/06/23 03:29:25;;;;;;;9.07;4.33;;;;;;;10.32;68.94;97056.67;1428845;99;26438;-75
2022/06/23 03:32:13;;;;;;;5.12;3.55;;;;;;;10.32;69.03;97054.80;1404979;98;25799;-76
2022/06/23 03:34:44;;;;;;;6.58;3.60;;;;;;;10.34;69.10;97054.59;1372610;103;27540;-76
2022/06/23 03:37:34;;;;;;;7.20;4.15;;;;;;;10.39;69.25;97055.58;1380601;103;25908;-76
2022/06/23 03:43:15;;;;;;;7.03;4.30;;;;;;;10.47;69.35;97058.55;1391078;102;26519;-75
2022/06/23 03:46:12;;;;;;;7.78;4.90;;;;;;;10.50;69.39;97059.47;1380601;101;25529;-75
2022/06/23 03:48:52;;;;;;;7.40;4.58;;;;;;;10.54;69.43;97057.13;1336116;106;27677;-76
2022/06/23 03:51:26;;;;;;;7.10;4.60;;;;;;;10.60;69.46;97062.50;1318758;108;25939;-77
2022/06/23 03:54:02;;;;;;;4.97;3.87;;;;;;;10.65;69.41;97060.47;1286003;111;26004;-76
2022/06/23 03:56:38;;;;;;;6.67;4.03;;;;;;;10.67;69.34;97062.43;1286268;110;26692;-76
2022/06/23 03:59:15;;;;;;;6.75;4.08;;;;;;;10.65;69.40;97062.64;1284297;110;26171;-76
2022/06/23 04:01:59;;;;;;;8.60;4.28;;;;;;;10.66;69.41;97071.57;1302624;108;27523;-75
2022/06/23 04:04:46;;;;;;;7.00;4.20;;;;;;;10.67;69.46;97067.83;1310974;108;26632;-75
2022/06/23 04:07:36;;;;;;;4.15;3.72;;;;;;;10.66;69.49;97060.77;1329644;106;27056;-76
2022/06/23 04:10:10;;;;;;;8.05;4.55;;;;;;;10.67;69.53;97069.18;1330428;106;26035;-76
2022/06/23 04:12:41;;;;;;;6.35;3.80;;;;;;;10.67;69.64;97071.88;1294253;109;26120;-76
2022/06/23 04:15:13;;;;;;;7.00;4.10;;;;;;;10.69;69.72;97069.80;1295634;108;27521;-75
2022/06/23 04:17:46;;;;;;;5.05;3.95;;;;;;;10.68;69.77;97073.53;1294407;108;25962;-76
2022/06/23 04:20:34;;;;;;;7.62;4.70;;;;;;;10.68;69.86;97069.48;1294927;109;26024;-76
2022/06/23 04:23:27;;;;;;;5.75;4.55;;;;;;;10.72;69.92;97072.88;1289707;108;26521;-76
2022/06/23 04:26:07;;;;;;;9.38;5.85;;;;;;;10.75;70.02;97076.99;1285742;109;25830;-76
2022/06/23 04:28:45;;;;;;;8.23;5.78;;;;;;;10.80;70.10;97078.52;1286048;109;27799;-76
2022/06/23 04:31:41;;;;;;;12.20;6.28;;;;;;;10.84;70.18;97087.84;1285113;109;25992;-76
2022/06/23 04:34:15;;;;;;;13.18;7.15;;;;;;;10.89;70.30;97081.77;1299432;107;25939;-76
2022/06/23 04:36:46;;;;;;;9.78;5.87;;;;;;;10.96;70.33;97084.73;1348488;104;26505;-76
2022/06/23 04:39:33;;;;;;;8.80;5.62;;;;;;;11.03;70.36;97088.70;1347540;104;25889;-77
2022/06/23 04:42:11;;;;;;;11.63;6.58;;;;;;;11.11;70.37;97085.71;1354398;104;27465;-75
2022/06/23 04:44:46;;;;;;;10.93;7.12;;;;;;;11.17;70.47;97088.36;1333497;106;26176;-76
2022/06/23 04:47:29;;;;;;;11.80;6.72;;;;;;;11.24;70.48;97090.98;1341248;104;26014;-76
2022/06/23 04:50:03;;;;;;;13.08;6.40;;;;;;;11.31;70.43;97095.81;1330131;105;25992;-76
2022/06/23 04:52:37;;;;;;;7.40;5.47;;;;;;;11.38;70.34;97090.33;1333726;107;25660;-77
2022/06/23 04:55:29;;;;;;;14.07;6.58;;;;;;;11.45;70.32;97092.45;1323122;107;27689;-76
2022/06/23 04:58:21;;;;;;;8.95;5.92;;;;;;;11.51;70.40;97096.95;1358472;103;25973;-76
2022/06/23 05:00:52;;;;;;;9.85;6.17;;;;;;;11.60;70.30;97097.47;1365735;103;25906;-76
2022/06/23 05:03:44;;;;;;;7.97;5.58;;;;;;;11.68;70.32;97100.72;1366336;103;25952;-76
2022/06/23 05:06:31;;;;;;;11.18;5.97;;;;;;;11.75;70.31;97093.38;1364649;103;25924;-76
2022/06/23 05:09:04;;;;;;;11.45;5.45;;;;;;;11.86;70.38;97089.91;1381824;99;27532;-76
2022/06/23 05:11:44;;;;;;;8.18;5.22;;;;;;;11.97;70.40;97091.55;1425088;99;25899;-77
2022/06/23 05:14:31;;;;;;;5.33;4.40;;;;;;;12.07;70.32;97091.33;1431014;98;26151;-76
2022/06/23 05:17:18;;;;;;;10.35;4.62;;;;;;;12.17;70.32;97097.55;1387513;103;25867;-77
2022/06/23 05:19:46;;;;;;;10.98;6.55;;;;;;;12.26;70.24;97102.40;1388030;102;25889;-76
2022/06/23 05:22:27;;;;;;;9.15;6.28;;;;;;;12.38;70.21;97098.38;1393210;101;28404;-76
2022/06/23 05:24:56;;;;;;;14.33;6.47;;;;;;;12.48;70.18;97109.48;1403381;101;25857;-77
2022/06/23 05:27:27;;;;;;;11.63;6.33;;;;;;;12.59;70.05;97109.21;1453211;94;26207;-76
2022/06/23 05:30:05;;;;;;;7.92;5.08;;;;;;;12.70;70.08;97110.30;1505062;94;25941;-76
2022/06/23 05:32:51;;;;;;;8.80;5.58;;;;;;;12.79;70.17;97113.81;1489126;94;26112;-76
2022/06/23 05:35:23;;;;;;;7.78;5.45;;;;;;;12.91;70.03;97116.55;1500835;95;27017;-77
2022/06/23 05:37:58;;;;;;;9.60;5.22;;;;;;;13.03;69.86;97111.97;1510538;94;25927;-77
2022/06/23 05:40:38;;;;;;;9.78;5.20;;;;;;;13.13;69.54;97113.56;1476683;94;25918;-77
2022/06/23 05:43:05;;;;;;;8.78;4.70;;;;;;;13.24;69.23;97118.20;1483717;94;25927;-76
2022/06/23 05:45:41;;;;;;;7.97;4.65;;;;;;;13.37;68.99;97114.96;1471404;96;26587;-77
2022/06/23 05:48:19;;;;;;;5.97;3.62;;;;;;;13.51;68.86;97126.70;1504149;94;27507;-76
2022/06/23 05:51:02;;;;;;;6.72;3.70;;;;;;;13.63;68.30;97122.09;1504859;93;25837;-77
2022/06/23 05:53:42;;;;;;;5.65;3.50;;;;;;;13.75;67.74;97123.95;1505151;93;25379;-76
2022/06/23 05:56:26;;;;;;;6.08;3.55;;;;;;;13.89;67.43;97130.75;1474837;95;25883;-76
2022/06/23 05:59:31;;;;;;;6.20;4.00;;;;;;;14.02;67.18;97126.42;1480157;95;25823;-77
2022/06/23 06:02:11;;;;;;;6.92;3.87;;;;;;;14.17;67.17;97125.91;1477699;96;27473;-77
2022/06/23 06:04:49;;;;;;;6.30;3.72;;;;;;;14.31;66.71;97124.04;1472138;96;25989;-77
2022/06/23 06:07:23;;;;;;;5.47;3.30;;;;;;;14.43;66.33;97128.09;1474912;96;25908;-76
2022/06/23 06:09:51;;;;;;;6.87;3.65;;;;;;;14.55;66.12;97131.59;1477072;96;26548;-77
2022/06/23 06:12:28;;;;;;;9.95;4.30;;;;;;;14.67;65.89;97125.56;1528549;92;25784;-76
2022/06/23 06:15:04;;;;;;;8.58;4.30;;;;;;;14.81;65.68;97126.09;1529260;93;27478;-76
2022/06/23 06:17:34;;;;;;;9.15;4.17;;;;;;;14.96;65.47;97124.18;1547801;92;25922;-77
2022/06/23 06:20:06;;;;;;;5.87;3.58;;;;;;;15.08;65.24;97124.92;1547644;92;25931;-77
2022/06/23 06:23:03;;;;;;;8.50;4.00;;;;;;;15.21;65.11;97119.70;1507690;94;26751;-78
2022/06/23 06:25:37;;;;;;;8.25;4.90;;;;;;;15.34;65.08;97117.44;1508562;94;25921;-77
2022/06/23 06:28:21;;;;;;;8.63;4.62;;;;;;;15.48;64.74;97116.56;1457929;97;28171;-78
2022/06/23 06:30:59;;;;;;;8.08;4.15;;;;;;;15.62;64.64;97125.23;1462854;97;25912;-77
2022/06/23 06:33:37;;;;;;;7.03;4.65;;;;;;;15.76;64.49;97129.25;1442736;98;26022;-77
2022/06/23 06:36:26;;;;;;;8.88;4.30;;;;;;;15.87;64.17;97125.59;1373151;103;26053;-77
2022/06/23 06:39:16;;;;;;;8.25;3.70;;;;;;;16.01;63.94;97135.05;1373353;103;25863;-78
2022/06/23 06:41:48;;;;;;;6.95;3.37;;;;;;;16.18;63.84;97133.07;1373248;103;27484;-78
2022/06/23 06:44:17;;;;;;;8.00;3.00;;;;;;;16.38;63.39;97135.23;1373145;103;25800;-78
2022/06/23 06:46:45;;;;;;;8.03;3.72;;;;;;;16.55;62.61;97131.05;1373189;103;25906;-78
2022/06/23 06:49:16;;;;;;;6.05;3.58;;;;;;;16.68;62.75;97133.94;1373053;103;26721;-78
2022/06/23 06:51:43;;;;;;;5.03;3.33;;;;;;;16.82;62.87;97135.18;1371336;103;25939;-78
2022/06/23 06:54:24;;;;;;;5.17;3.17;;;;;;;16.97;62.59;97133.97;1373187;103;27535;-78
2022/06/23 06:56:55;;;;;;;3.42;2.70;;;;;;;17.10;62.47;97136.81;1352481;104;25989;-79
2022/06/23 06:59:42;;;;;;;6.05;3.25;;;;;;;17.19;61.86;97140.70;1353222;104;25922;-79
2022/06/23 07:02:25;;;;;;;6.92;3.10;;;;;;;17.31;62.00;97135.90;1353458;104;26629;-79
2022/06/23 07:04:56;;;;;;;5.97;3.27;;;;;;;17.46;61.98;97141.48;1320436;106;25885;-77
2022/06/23 07:07:29;;;;;;;5.45;3.30;;;;;;;17.62;61.76;97133.70;1327669;107;28509;-78
2022/06/23 07:10:01;;;;;;;4.03;3.10;;;;;;;17.77;61.88;97137.07;1328338;106;25760;-79
2022/06/23 07:12:43;;;;;;;8.38;3.08;;;;;;;17.88;61.49;97146.14;1279221;108;26817;-78
2022/06/23 07:15:39;;;;;;;4.37;2.80;;;;;;;17.99;61.30;97146.52;1282168;111;26685;-78
2022/06/23 07:18:25;;;;;;;5.15;2.50;;;;;;;18.11;61.04;97143.02;1259673;112;26119;-78
2022/06/23 07:21:21;;;;;;;4.53;2.65;;;;;;;18.30;60.55;97142.83;1252405;112;27790;-78
2022/06/23 07:23:55;;;;;;;5.90;2.60;;;;;;;18.47;59.89;97147.27;1245743;113;26121;-78
2022/06/23 07:26:52;;;;;;;3.33;2.40;;;;;;;18.64;59.15;97149.27;1320363;107;25990;-78
2022/06/23 07:29:27;;;;;;;4.00;3.08;;;;;;;18.74;58.41;97149.28;1323119;107;25926;-78
2022/06/23 07:32:15;;;;;;;5.05;2.47;;;;;;;18.81;57.74;97153.97;1318570;107;25950;-79
2022/06/23 07:34:53;;;;;;;4.62;2.10;;;;;;;18.90;57.34;97152.88;1322595;108;27507;-79
2022/06/23 07:37:42;;;;;;;2.47;2.20;;;;;;;19.04;56.90;97160.30;1295948;108;26032;-79
2022/06/23 07:40:11;;;;;;;4.00;2.05;;;;;;;19.13;56.63;97152.92;1296143;109;25951;-79
2022/06/23 07:43:12;;;;;;;2.40;1.77;;;;;;;19.17;56.18;97154.02;1295486;109;25871;-78
2022/06/23 07:45:59;;;;;;;3.60;2.10;;;;;;;19.21;55.92;97160.58;1296464;109;26534;-79
2022/06/23 07:48:29;;;;;;;4.25;2.20;;;;;;;19.20;55.41;97160.33;1330382;107;27502;-79
2022/06/23 07:50:56;;;;;;;3.33;2.50;;;;;;;19.24;55.63;97166.33;1360178;103;26019;-79
2022/06/23 07:53:30;;;;;;;3.90;2.33;;;;;;;19.30;55.27;97163.89;1366925;103;25884;-78
2022/06/23 07:55:58;;;;;;;3.25;2.10;;;;;;;19.37;55.09;97166.34;1374374;102;26375;-79
2022/06/23 07:58:32;;;;;;;5.30;2.25;;;;;;;19.43;55.53;97165.27;1429063;97;25907;-79
2022/06/23 08:01:06;;;;;;;4.47;2.62;;;;;;;19.46;55.21;97163.88;1449554;97;27647;-79
2022/06/23 08:03:56;;;;;;;2.72;2.20;;;;;;;19.65;54.94;97164.47;1449742;97;25827;-79
2022/06/23 08:06:24;;;;;;;4.12;1.98;;;;;;;20.08;54.03;97161.64;1423795;98;25927;-79
2022/06/23 08:08:55;;;;;;;3.12;2.15;;;;;;;20.70;53.48;97156.78;1445321;98;26578;-80
2022/06/23 08:14:14;;;;;;;6.37;2.20;;;;;;;21.20;52.31;97158.44;1552826;88;27498;-78
2022/06/23 08:16:52;;;;;;;6.08;1.95;;;;;;;21.69;51.28;97161.06;1603324;88;26008;-80
2022/06/23 08:19:24;;;;;;;2.72;1.85;;;;;;;21.89;51.06;97159.49;1603626;88;25326;-80
2022/06/23 08:21:56;;;;;;;6.03;2.40;;;;;;;21.91;50.53;97165.52;1605889;88;26222;-79
2022/06/23 08:24:24;;;;;;;5.78;2.08;;;;;;;21.85;49.95;97167.25;1525250;91;25768;-79
2022/06/23 08:27:18;;;;;;;4.90;2.22;;;;;;;21.79;49.43;97167.84;1525716;91;27462;-80
2022/06/23 08:29:59;;;;;;;4.42;2.00;;;;;;;21.61;48.77;97168.56;1525342;91;25848;-80
2022/06/23 08:32:26;;;;;;;4.33;2.22;;;;;;;21.50;48.54;97165.61;1522112;92;25801;-80
2022/06/23 08:35:16;;;;;;;5.33;1.90;;;;;;;21.57;49.08;97163.37;1533098;91;26597;-79
2022/06/23 08:38:00;;;;;;;4.60;1.87;;;;;;;21.83;48.25;97170.28;1570615;89;25900;-80
2022/06/23 08:41:04;;;;;;;3.30;1.80;;;;;;;21.81;47.46;97169.75;1574922;89;27713;-80
2022/06/23 08:44:00;;;;;;;5.10;1.80;;;;;;;21.72;47.06;97163.24;1548634;91;25856;-79
2022/06/23 08:46:53;;;;;;;2.42;1.70;;;;;;;21.67;47.07;97177.01;1548625;91;25941;-80
2022/06/23 08:49:36;;;;;;;4.97;2.02;;;;;;;21.58;46.52;97174.63;1534514;92;25834;-80
2022/06/23 08:52:17;;;;;;;3.00;1.70;;;;;;;21.65;46.47;97177.03;1542506;90;25781;-80
2022/06/23 08:55:12;;;;;;;3.80;1.62;;;;;;;22.08;46.14;97178.05;1589150;89;27589;-78
2022/06/23 08:57:50;;;;;;;4.40;1.75;;;;;;;22.21;46.24;97170.48;1577197;89;25595;-80
2022/06/23 09:00:27;;;;;;;3.22;1.70;;;;;;;22.33;44.90;97169.53;1575962;89;25964;-79
2022/06/23 09:03:36;;;;;;;3.15;1.50;;;;;;;22.37;44.04;97172.48;1660752;85;25889;-80
2022/06/23 09:06:27;;;;;;;5.08;1.92;;;;;;;22.55;44.53;97173.94;1671529;85;25455;-81
2022/06/23 09:09:07;;;;;;;2.95;1.70;;;;;;;23.15;44.15;97174.82;1671329;84;27426;-81
2022/06/23 09:12:10;;;;;;;2.72;1.60;;;;;;;23.69;44.49;97167.38;1667103;84;25843;-82
2022/06/23 09:15:04;;;;;;;2.37;1.57;;;;;;;24.41;43.75;97169.12;1643582;86;25916;-82
2022/06/23 09:18:02;;;;;;;2.05;1.50;;;;;;;25.11;43.00;97171.56;1628875;86;25844;-80
2022/06/23 09:21:06;;;;;;;3.27;1.70;;;;;;;25.79;42.13;97169.94;1623068;86;25806;-81
2022/06/23 09:24:10;;;;;;;5.10;1.80;;;;;;;26.30;41.53;97167.83;1627525;86;27652;-81
2022/06/23 09:26:49;;;;;;;3.67;1.77;;;;;;;26.84;40.70;97168.74;1608025;86;25819;-82
2022/06/23 09:29:24;;;;;;;3.25;1.40;;;;;;;27.38;40.33;97171.31;1610823;87;25789;-83
2022/06/23 09:32:14;;;;;;;3.33;1.50;;;;;;;27.71;38.87;97171.66;1596049;89;26369;-82
2022/06/23 09:35:18;;;;;;;2.67;1.67;;;;;;;27.90;39.06;97166.55;1587693;88;25970;-83
2022/06/23 09:38:10;;;;;;;5.67;1.35;;;;;;;28.36;38.64;97169.19;1563886;89;27416;-81
2022/06/23 09:40:51;;;;;;;2.83;1.50;;;;;;;28.74;37.60;97163.63;1597296;89;25799;-82
2022/06/23 09:43:35;;;;;;;3.80;1.70;;;;;;;28.99;36.76;97167.66;1621311;88;25846;-82
2022/06/23 09:46:45;;;;;;;3.25;1.87;;;;;;;29.19;36.08;97161.09;1625097;87;25871;-83
2022/06/23 09:49:34;;;;;;;2.75;1.60;;;;;;;29.20;35.78;97171.88;1637859;86;25868;-83
2022/06/23 09:52:30;;;;;;;4.42;1.80;;;;;;;28.95;34.98;97168.11;1635246;86;27438;-84
2022/06/23 09:55:20;;;;;;;2.17;1.65;;;;;;;28.59;34.70;97171.95;1638391;86;25886;-83
2022/06/23 09:58:18;;;;;;;2.87;1.77;;;;;;;28.62;34.92;97169.87;1604985;88;25925;-82
2022/06/23 10:01:14;;;;;;;2.55;1.55;;;;;;;28.77;35.02;97163.76;1606939;88;25912;-83
2022/06/23 10:04:03;;;;;;;3.00;1.90;;;;;;;28.75;34.10;97168.83;1572141;88;26100;-82
2022/06/23 10:07:13;;;;;;;4.40;1.72;;;;;;;28.17;33.21;97165.36;1624319;86;27522;-82
2022/06/23 10:10:05;;;;;;;3.22;1.57;;;;;;;27.68;33.53;97173.69;1597230;87;25807;-81
2022/06/23 10:13:09;;;;;;;4.58;1.47;;;;;;;27.78;34.29;97173.34;1682137;82;25805;-83
2022/06/23 10:16:06;;;;;;;3.10;1.45;;;;;;;27.95;33.82;97170.56;1717623;82;25803;-80
2022/06/23 10:18:52;;;;;;;4.50;1.60;;;;;;;28.22;33.83;97161.88;1723656;82;25928;-82
2022/06/23 10:21:41;;;;;;;2.65;1.65;;;;;;;28.56;33.54;97167.05;1722615;82;28496;-82
2022/06/23 10:24:33;;;;;;;1.72;1.35;;;;;;;28.68;33.64;97167.98;1628813;86;25946;-80
2022/06/23 10:27:23;;;;;;;2.47;1.60;;;;;;;28.94;33.44;97165.09;1622983;86;25887;-81
2022/06/23 10:30:15;;;;;;;1.67;1.50;;;;;;;28.98;32.39;97167.42;1592963;88;26035;-80
2022/06/23 10:33:12;;;;;;;2.62;1.67;;;;;;;29.02;32.66;97161.44;1651237;85;25536;-80
2022/06/23 10:35:50;;;;;;;3.47;1.90;;;;;;;28.97;32.27;97160.84;1668595;85;27467;-78
2022/06/23 10:38:40;;;;;;;2.25;1.80;;;;;;;29.12;31.93;97163.58;1669267;85;25814;-81
2022/06/23 10:41:41;;;;;;;2.35;1.60;;;;;;;29.11;31.76;97166.11;1704199;82;25837;-80
2022/06/23 10:44:21;;;;;;;3.20;1.47;;;;;;;29.34;32.28;97174.41;1711192;82;26482;-78
2022/06/23 10:47:14;;;;;;;2.95;1.60;;;;;;;29.26;31.32;97177.46;1720726;82;25872;-82
2022/06/23 10:50:07;;;;;;;2.40;1.82;;;;;;;29.23;30.99;97159.25;1639491;86;26878;-80
2022/06/23 10:52:48;;;;;;;3.58;2.05;;;;;;;29.10;30.69;97168.69;1640308;86;25943;-78
2022/06/23 10:55:50;;;;;;;1.87;1.72;;;;;;;29.06;31.00;97164.94;1632282;86;25796;-79
2022/06/23 10:58:52;;;;;;;3.98;1.87;;;;;;;29.19;31.02;97169.43;1645036;86;26564;-81
2022/06/23 11:01:39;;;;;;;;;;;;;;;29.42;30.65;97169.38;1643402;86;26115;-81
2022/06/23 11:04:26;;;;;;;2.15;1.42;;;;;;;29.37;29.51;97168.14;1622600;87;28287;-79
2022/06/23 11:07:23;;;;;;;1.90;1.60;;;;;;;29.47;30.92;97170.54;1656800;86;25721;-79
2022/06/23 11:10:09;;;;;;;1.65;1.40;;;;;;;29.68;30.78;97175.54;1619603;87;25916;-82
2022/06/23 11:12:56;;;;;;;2.35;1.52;;;;;;;29.81;30.66;97173.63;1617282;88;25874;-79
2022/06/23 11:15:47;;;;;;;1.85;1.60;;;;;;;29.79;30.08;97176.50;1559950;91;26012;-79
2022/06/23 11:18:49;;;;;;;2.57;1.50;;;;;;;29.94;29.77;97173.09;1561205;91;27426;-80
2022/06/23 11:22:01;;;;;;;4.75;1.40;;;;;;;30.03;29.93;97178.02;1547484;90;25803;-79
2022/06/23 11:24:33;;;;;;;4.62;1.42;;;;;;;30.14;29.41;97170.86;1565838;90;25843;-79
2022/06/23 11:27:14;;;;;;;;;;;;;;;30.00;28.90;97164.20;1580738;88;25754;-79
2022/06/23 11:29:55;;;;;;;2.60;1.52;;;;;;;29.92;27.85;97164.27;1604652;88;25808;-79
2022/06/23 11:32:45;;;;;;;2.30;1.55;;;;;;;29.94;29.23;97175.88;1592763;89;28299;-80
2022/06/23 11:35:40;;;;;;;1.77;1.27;;;;;;;30.07;29.40;97176.97;1591352;89;25943;-78
2022/06/23 11:38:15;;;;;;;2.95;1.52;;;;;;;29.96;28.90;97168.81;1560605;91;25781;-81
2022/06/23 11:41:07;;;;;;;4.35;1.70;;;;;;;30.07;29.21;97167.80;1580003;88;26739;-81
2022/06/23 11:43:42;;;;;;;2.37;1.55;;;;;;;30.20;28.93;97156.13;1523847;92;26051;-80
2022/06/23 11:46:29;;;;;;;1.85;1.50;;;;;;;30.21;28.60;97151.61;1506043;94;27615;-79
2022/06/23 11:49:25;;;;;;;1.30;1.15;;;;;;;30.15;28.33;97154.97;1504280;94;26376;-82
2022/06/23 11:52:26;;;;;;;2.75;1.55;;;;;;;30.20;28.82;97152.77;1504023;94;25850;-80
2022/06/23 11:55:01;;;;;;;2.00;1.35;;;;;;;30.12;27.80;97145.91;1502832;94;26004;-78
2022/06/23 11:58:07;;;;;;;2.87;1.60;;;;;;;30.04;27.98;97139.30;1498556;94;25932;-79
2022/06/23 12:00:55;;;;;;;3.20;1.62;;;;;;;30.10;28.68;97135.12;1498160;95;28123;-82
2022/06/23 12:03:49;;;;;;;1.45;1.12;;;;;;;30.08;27.53;97137.42;1497814;94;25884;-78
2022/06/23 12:06:33;;;;;;;2.67;1.50;;;;;;;29.97;28.17;97133.46;1489523;94;25960;-80
2022/06/23 12:09:10;;;;;;;1.77;1.50;;;;;;;30.02;28.06;97137.42;1491336;94;26649;-79
2022/06/23 12:11:37;;;;;;;1.52;1.42;;;;;;;29.94;27.48;97130.78;1511983;93;25564;-80
2022/06/23 12:16:41;;;;;;;2.55;1.40;;;;;;;29.94;27.04;97134.14;1488321;94;25849;-81
2022/06/23 12:19:13;;;;;;;2.52;1.50;;;;;;;29.92;26.90;97137.84;1482197;91;25966;-79
2022/06/23 12:22:03;;;;;;;2.92;1.70;;;;;;;29.91;27.03;97134.23;1522679;92;26582;-80
2022/06/23 12:24:44;;;;;;;3.50;1.32;;;;;;;29.99;27.92;97136.72;1521939;92;25553;-80
2022/06/23 12:27:49;;;;;;;3.62;1.40;;;;;;;30.10;28.04;97132.34;1529569;91;28241;-78
2022/06/23 12:30:19;;;;;;;2.52;1.70;;;;;;;29.98;27.37;97122.56;1569011;90;25869;-80
2022/06/23 12:33:03;;;;;;;3.30;1.62;;;;;;;29.83;27.34;97139.30;1568962;90;25753;-79
2022/06/23 12:35:56;;;;;;;1.72;1.62;;;;;;;29.90;28.05;97133.19;1563435;90;26060;-78
2022/06/23 12:38:34;;;;;;;2.50;1.60;;;;;;;30.00;28.01;97131.39;1521446;93;25471;-78
2022/06/23 12:41:25;;;;;;;1.92;1.35;;;;;;;29.81;27.28;97132.47;1515289;93;27453;-80
2022/06/23 12:44:18;;;;;;;3.20;1.40;;;;;;;29.64;26.81;97131.47;1519691;93;25831;-79
2022/06/23 12:47:02;;;;;;;1.98;1.40;;;;;;;29.41;26.67;97120.48;1469686;96;25831;-80
2022/06/23 12:49:55;;;;;;;1.30;1.20;;;;;;;29.37;27.57;97129.22;1468087;95;26336;-79
2022/06/23 12:52:38;;;;;;;1.90;1.55;;;;;;;29.44;27.83;97118.41;1460567;96;26053;-79
2022/06/23 12:55:19;;;;;;;2.90;1.35;;;;;;;29.39;27.18;97117.22;1447348;96;27424;-80
2022/06/23 12:58:16;;;;;;;2.80;1.57;;;;;;;29.34;27.17;97125.14;1502360;93;25909;-79
2022/06/23 13:01:07;;;;;;;3.12;1.42;;;;;;;29.21;27.19;97120.70;1508665;94;25852;-78
2022/06/23 13:04:03;;;;;;;1.27;1.17;;;;;;;29.16;26.79;97120.08;1509288;93;25892;-79
2022/06/23 13:07:04;;;;;;;1.98;1.70;;;;;;;29.14;27.17;97118.20;1504891;93;26001;-80
2022/06/23 13:09:45;;;;;;;1.47;1.30;;;;;;;29.29;27.68;97117.03;1505298;93;27480;-79
2022/06/23 13:12:23;;;;;;;2.72;1.65;;;;;;;29.38;26.76;97114.20;1506216;94;25768;-80